Paganella, Italy
Alba: 6:40 AM UTC1
Tramonto: 5:18 PM UTC1
 Lat: 46.13N, Lon: 11.02E
ICAO Used: LIVP
Condizioni Meteo Attuali Aggiornate: 22.10.2018 alle 14:55 UTC
Quasi Sereno
Quasi Sereno
Sereno
Quasi Sereno
Temp: 6°C
Umidita': 33%
Direz/Vel. Vento: N 12 / KT raffiche
Pressione: 1022 hPa
Punto di rugiada: -9°C
Temperatura percepita: 3°C
Visibilitą: >10 KM (ottima)
Temperatura percepita in
presenza di vento (Wind Chill)
:
2°C
T. max (ultime 24 ore): 6°C
T. min (ultime 24 ore): N/D


METAR ORIGINALE
LIVP 221455Z 36012KT CAVOK 06/M09 Q1022 RMK SKC MON LIB VAL NIL VIS MIN 9999



[ Indietro ]


Elaborazione dati by Datameteo.com - Lrc srl Copyright ©, All rights reserved.